Vieste 2 — IQQV — position and weather

sailwx.info

Track history (hours):
 
Tides and Currents Weather Stations Pressure Air Temp Water Temp Dewpoint Dewpoint Depression Visibility Wind Speed Wind Dir Waves Ship Positions

Vieste 2

Last reported at 2015-Aug-21 12:33 UTC. Time now 2015-Aug-30 01:40 UTC.
Position N 42°27' E 011°07'.
Warning: this ship's position is 8 days out of date.

Length 32 m; draft 1.8 m.

Type: Passenger vessel. MMSI: 247207500.

Date/timePositionNaut miles runAvg speedWind from/ knotsBaromVisibWave heightAir tempDewpointWater temp
2015-Aug-21 12:33N 42°27' E 011°07'0 0.2
2015-Aug-21 09:31N 42°26' E 011°07'0 0.0
2015-Aug-20 16:04N 42°26' E 011°07'1 0.4
2015-Aug-20 13:11N 42°27' E 011°07'1 1.4
2015-Aug-20 12:23N 42°26' E 011°07'0 0.0
2015-Aug-20 09:33N 42°26' E 011°07'0 0.0
2015-Aug-20 07:29N 42°26' E 011°07'  
2015-Aug-14 08:08N 42°24' E 010°58'3 0.2
2015-Aug-13 16:15N 42°25' E 011°01'3 0.4
2015-Aug-13 08:12N 42°23' E 010°57'8 1.2
2015-Aug-13 01:34N 42°26' E 011°07'0 0.0
2015-Aug-13 00:33N 42°26' E 011°07'0 0.0
2015-Aug-12 23:34N 42°26' E 011°07'0 0.0
2015-Aug-12 22:34N 42°26' E 011°07'0 0.0
2015-Aug-12 21:33N 42°26' E 011°07'0 0.0
2015-Aug-12 20:33N 42°26' E 011°07'0 0.0
2015-Aug-12 19:34N 42°26' E 011°07'0 0.0
2015-Aug-12 18:34N 42°26' E 011°07'0 0.0
2015-Aug-12 17:34N 42°26' E 011°07'1 0.1
2015-Aug-12 10:05N 42°27' E 011°07'1 1.8
2015-Aug-12 09:33N 42°26' E 011°07'0 0.0
2015-Aug-12 08:33N 42°26' E 011°07'  
Track history (hours):
 
Tides and Currents Weather Stations Pressure Air Temp Water Temp Dewpoint Dewpoint Depression Visibility Wind Speed Wind Dir Waves Ship Positions

Vieste 2

Last reported at 2015-Aug-21 12:33 UTC. Time now 2015-Aug-30 01:40 UTC.
Position N 42°27' E 011°07'.
Warning: this ship's position is 8 days out of date.

Length 32 m; draft 1.8 m.

Type: Passenger vessel. MMSI: 247207500.

Date/timePositionNaut miles runAvg speedWind from/ knotsBaromVisibWave heightAir tempDewpointWater temp
2015-Aug-21 12:33N 42°27' E 011°07'0 0.2
2015-Aug-21 09:31N 42°26' E 011°07'0 0.0
2015-Aug-20 16:04N 42°26' E 011°07'1 0.4
2015-Aug-20 13:11N 42°27' E 011°07'1 1.4
2015-Aug-20 12:23N 42°26' E 011°07'0 0.0
2015-Aug-20 09:33N 42°26' E 011°07'0 0.0
2015-Aug-20 07:29N 42°26' E 011°07'  
2015-Aug-14 08:08N 42°24' E 010°58'3 0.2
2015-Aug-13 16:15N 42°25' E 011°01'3 0.4
2015-Aug-13 08:12N 42°23' E 010°57'8 1.2
2015-Aug-13 01:34N 42°26' E 011°07'0 0.0
2015-Aug-13 00:33N 42°26' E 011°07'0 0.0
2015-Aug-12 23:34N 42°26' E 011°07'0 0.0
2015-Aug-12 22:34N 42°26' E 011°07'0 0.0
2015-Aug-12 21:33N 42°26' E 011°07'0 0.0
2015-Aug-12 20:33N 42°26' E 011°07'0 0.0
2015-Aug-12 19:34N 42°26' E 011°07'0 0.0
2015-Aug-12 18:34N 42°26' E 011°07'0 0.0
2015-Aug-12 17:34N 42°26' E 011°07'1 0.1
2015-Aug-12 10:05N 42°27' E 011°07'1 1.8
2015-Aug-12 09:33N 42°26' E 011°07'0 0.0
2015-Aug-12 08:33N 42°26' E 011°07'  

Dump ship's entire track history